Time;durP1;ratioP1;P1;durP2;ratioP2;P2;SDS_P1;SDS_P2;PMS_P1;PMS_P2;Temp;Humidity;BMP_temperature;BMP_pressure;BME280_temperature;BME280_humidity;BME280_pressure;Samples;Min_cycle;Max_cycle;Signal;HPM_P1;HPM_P2
2023/07/19 00:01:31;;;;;;;13.05;6.55;;;;;;;23.67;100.00;95847.50;5011645;28;20164;-71
2023/07/19 00:03:56;;;;;;;13.13;6.22;;;;;;;23.70;100.00;95847.88;5009693;28;20084;-71
2023/07/19 00:06:23;;;;;;;9.45;6.28;;;;;;;23.70;100.00;95841.69;5009294;28;20173;-71
2023/07/19 00:08:49;;;;;;;9.73;6.85;;;;;;;23.72;100.00;95818.91;5013661;28;20017;-71
2023/07/19 00:11:14;;;;;;;9.82;6.78;;;;;;;23.74;100.00;95800.69;5020134;28;20616;-71
2023/07/19 00:13:40;;;;;;;12.15;6.05;;;;;;;23.77;100.00;95801.31;5006458;28;20052;-71
2023/07/19 00:16:05;;;;;;;7.75;5.57;;;;;;;23.79;100.00;95804.59;5046317;28;20032;-71
2023/07/19 00:18:31;;;;;;;8.88;7.15;;;;;;;23.75;100.00;95806.91;5010928;28;20513;-71
2023/07/19 00:20:56;;;;;;;10.73;6.40;;;;;;;23.72;100.00;95797.41;5007795;28;20017;-72
2023/07/19 00:23:21;;;;;;;7.40;5.70;;;;;;;23.71;100.00;95803.81;5013548;28;20527;-71
2023/07/19 00:25:47;;;;;;;10.07;6.38;;;;;;;23.68;100.00;95800.78;5013363;28;20063;-71
2023/07/19 00:28:12;;;;;;;12.57;8.23;;;;;;;23.63;100.00;95797.91;5012594;28;20033;-71
2023/07/19 00:30:38;;;;;;;10.15;6.13;;;;;;;23.62;100.00;95797.09;5044489;28;20526;-71
2023/07/19 00:33:04;;;;;;;8.52;6.43;;;;;;;23.58;100.00;95795.91;5015525;28;20033;-71
2023/07/19 00:35:30;;;;;;;9.90;6.25;;;;;;;23.59;100.00;95722.31;5014872;28;20028;-71
2023/07/19 00:37:58;;;;;;;16.48;6.10;;;;;;;23.60;100.00;95767.75;5015257;28;20014;-71
2023/07/19 00:40:24;;;;;;;7.55;6.10;;;;;;;23.57;100.00;95780.84;5013603;28;20029;-71
2023/07/19 00:42:56;;;;;;;12.68;6.50;;;;;;;23.59;100.00;95786.81;5012490;28;20022;-71
2023/07/19 00:45:22;;;;;;;8.57;6.05;;;;;;;23.63;100.00;95796.06;5014086;28;20030;-71
2023/07/19 00:47:48;;;;;;;11.05;6.13;;;;;;;23.60;100.00;95801.88;5012398;28;20029;-71
2023/07/19 00:50:13;;;;;;;9.68;6.15;;;;;;;23.59;100.00;95784.94;5012694;28;20029;-72
2023/07/19 00:52:40;;;;;;;7.65;5.80;;;;;;;23.58;100.00;95777.09;5012985;28;20025;-71
2023/07/19 00:55:06;;;;;;;8.70;5.80;;;;;;;23.58;100.00;95782.47;5013242;28;20402;-71
2023/07/19 00:57:33;;;;;;;9.32;6.00;;;;;;;23.55;100.00;95785.63;5014729;28;20014;-70
2023/07/19 00:59:59;;;;;;;9.32;6.03;;;;;;;23.48;100.00;95804.47;5014013;28;20022;-71
2023/07/19 01:02:26;;;;;;;7.95;6.38;;;;;;;23.49;100.00;95799.91;5014544;28;20117;-71
2023/07/19 01:04:51;;;;;;;11.65;6.68;;;;;;;23.52;100.00;95811.06;5015492;28;20022;-71
2023/07/19 01:07:17;;;;;;;11.02;6.32;;;;;;;23.48;100.00;95795.59;5013594;28;20068;-71
2023/07/19 01:09:42;;;;;;;10.80;5.95;;;;;;;23.43;100.00;95799.75;5012744;28;20068;-71
2023/07/19 01:12:08;;;;;;;8.55;6.03;;;;;;;23.34;100.00;95789.50;5015501;28;20467;-71
2023/07/19 01:14:34;;;;;;;8.63;5.82;;;;;;;23.27;100.00;95801.16;5020569;28;20026;-71
2023/07/19 01:17:00;;;;;;;9.43;6.38;;;;;;;23.25;100.00;95783.56;5013265;28;20028;-71
2023/07/19 01:19:26;;;;;;;10.98;6.28;;;;;;;23.21;100.00;95779.69;5015069;28;20034;-71
2023/07/19 01:21:54;;;;;;;7.97;5.90;;;;;;;23.23;100.00;95778.44;5012712;28;20029;-71
2023/07/19 01:24:20;;;;;;;10.75;6.13;;;;;;;23.28;100.00;95777.78;5017523;28;20560;-71
2023/07/19 01:26:45;;;;;;;11.32;7.25;;;;;;;23.29;100.00;95776.75;5014189;28;20050;-71
2023/07/19 01:29:11;;;;;;;8.65;6.10;;;;;;;23.28;100.00;95758.97;5012880;28;20032;-71
2023/07/19 01:31:37;;;;;;;14.15;5.80;;;;;;;23.22;100.00;95757.16;5013322;28;20379;-71
2023/07/19 01:34:02;;;;;;;8.35;6.43;;;;;;;23.21;100.00;95758.19;5015816;28;20105;-71
2023/07/19 01:36:27;;;;;;;12.25;6.85;;;;;;;23.26;100.00;95718.09;5013135;28;20037;-71
2023/07/19 01:38:53;;;;;;;10.30;6.13;;;;;;;23.30;100.00;95711.25;5013433;28;20025;-71
2023/07/19 01:41:20;;;;;;;10.35;6.05;;;;;;;23.34;100.00;95722.38;5015749;28;21182;-71
2023/07/19 01:43:45;;;;;;;9.25;6.43;;;;;;;23.34;100.00;95727.75;5015586;28;20556;-71
2023/07/19 01:46:10;;;;;;;8.02;6.13;;;;;;;23.35;100.00;95730.22;5018097;28;20025;-71
2023/07/19 01:48:36;;;;;;;7.57;6.40;;;;;;;23.34;100.00;95728.59;5015674;28;20056;-71
2023/07/19 01:51:02;;;;;;;9.27;6.38;;;;;;;23.36;100.00;95741.78;5017014;28;20365;-71
2023/07/19 01:53:27;;;;;;;12.48;6.68;;;;;;;23.28;100.00;95751.75;5017428;28;20028;-70
2023/07/19 01:55:55;;;;;;;7.85;6.13;;;;;;;23.26;100.00;95736.91;5014266;28;20026;-70
2023/07/19 01:58:21;;;;;;;9.60;6.70;;;;;;;23.22;100.00;95724.94;5018297;28;20055;-70
2023/07/19 02:00:46;;;;;;;10.90;7.00;;;;;;;23.18;100.00;95701.22;5042823;28;20486;-71
2023/07/19 02:03:12;;;;;;;8.00;6.32;;;;;;;23.16;100.00;95692.56;5014609;28;20022;-70
2023/07/19 02:05:37;;;;;;;8.30;6.97;;;;;;;23.08;100.00;95678.59;5016733;28;20101;-71
2023/07/19 02:08:03;;;;;;;13.63;6.80;;;;;;;23.04;100.00;95660.25;5015453;28;20026;-71
2023/07/19 02:10:28;;;;;;;9.35;6.70;;;;;;;22.97;100.00;95646.06;5017518;28;20080;-71
2023/07/19 02:12:54;;;;;;;10.68;6.88;;;;;;;22.97;100.00;95632.63;5016079;28;20025;-70
2023/07/19 02:15:20;;;;;;;9.52;6.65;;;;;;;22.98;100.00;95622.75;5017285;28;20030;-70
2023/07/19 02:17:45;;;;;;;9.25;6.00;;;;;;;23.00;100.00;95617.97;5014300;28;20045;-70
2023/07/19 02:20:12;;;;;;;8.52;6.25;;;;;;;23.02;100.00;95614.03;5015062;28;20030;-71
2023/07/19 02:22:39;;;;;;;8.45;6.15;;;;;;;23.04;100.00;95613.78;5011201;28;20022;-71
2023/07/19 02:25:05;;;;;;;9.25;6.10;;;;;;;22.99;100.00;95605.59;5017535;28;20022;-71
2023/07/19 02:27:30;;;;;;;7.38;5.75;;;;;;;22.93;100.00;95598.44;5018680;28;20052;-71
2023/07/19 02:29:56;;;;;;;8.15;6.03;;;;;;;22.94;100.00;95598.19;5013921;28;20026;-71
2023/07/19 02:32:21;;;;;;;13.32;7.05;;;;;;;22.85;100.00;95589.59;5008922;28;20045;-71
2023/07/19 02:34:47;;;;;;;10.43;6.47;;;;;;;22.79;100.00;95585.13;5015265;28;20679;-71
2023/07/19 02:37:12;;;;;;;11.45;6.95;;;;;;;22.78;100.00;95583.50;5014903;28;20064;-70
2023/07/19 02:39:37;;;;;;;7.50;5.93;;;;;;;22.56;100.00;95570.50;5012123;28;20037;-71
2023/07/19 02:42:04;;;;;;;8.60;5.60;;;;;;;22.53;100.00;95549.47;5018592;28;20022;-70
2023/07/19 02:44:29;;;;;;;8.02;6.32;;;;;;;22.53;100.00;95543.28;5017089;28;20057;-70
2023/07/19 02:46:57;;;;;;;12.63;6.28;;;;;;;22.54;100.00;95523.47;5014927;28;20054;-70
2023/07/19 02:49:23;;;;;;;7.43;6.47;;;;;;;22.52;100.00;95510.28;5017817;28;20037;-70
2023/07/19 02:51:49;;;;;;;12.85;6.20;;;;;;;22.47;100.00;95486.00;5015877;28;20465;-71
2023/07/19 02:54:15;;;;;;;9.70;6.03;;;;;;;22.39;100.00;95471.00;5010215;28;20037;-71
2023/07/19 02:56:40;;;;;;;12.48;6.97;;;;;;;22.39;100.00;95462.13;5007445;28;20021;-70
2023/07/19 02:59:08;;;;;;;10.38;6.22;;;;;;;22.35;100.00;95452.88;5015320;28;20034;-71
2023/07/19 03:01:36;;;;;;;11.02;6.07;;;;;;;22.35;100.00;95451.03;5016628;28;20029;-71
2023/07/19 03:04:02;;;;;;;10.00;6.72;;;;;;;22.38;100.00;95473.88;5012483;28;20029;-71
2023/07/19 03:06:28;;;;;;;8.52;6.13;;;;;;;22.42;100.00;95475.91;5014179;28;20105;-71
2023/07/19 03:08:53;;;;;;;12.82;6.53;;;;;;;22.45;100.00;95482.69;5014068;28;20029;-71
2023/07/19 03:11:19;;;;;;;7.18;6.35;;;;;;;22.48;100.00;95487.66;5017256;28;20029;-71
2023/07/19 03:13:44;;;;;;;7.20;6.22;;;;;;;22.46;100.00;95463.72;5014834;28;20030;-71
2023/07/19 03:16:10;;;;;;;9.15;6.10;;;;;;;22.49;100.00;95451.75;5018025;28;20061;-71
2023/07/19 03:18:35;;;;;;;11.13;6.18;;;;;;;22.52;100.00;95471.91;5011074;28;20081;-70
2023/07/19 03:21:02;;;;;;;7.95;6.35;;;;;;;22.51;100.00;95455.00;5018176;28;20030;-71
2023/07/19 03:23:31;;;;;;;9.43;6.65;;;;;;;22.52;100.00;95453.13;5014757;28;20084;-71
2023/07/19 03:25:58;;;;;;;9.60;6.40;;;;;;;22.57;100.00;95477.44;5017073;28;20060;-71
2023/07/19 03:28:25;;;;;;;12.18;6.72;;;;;;;22.66;100.00;95477.94;5014743;28;20034;-71
2023/07/19 03:30:54;;;;;;;10.82;6.75;;;;;;;22.66;100.00;95477.94;5017014;28;20491;-70
2023/07/19 03:33:20;;;;;;;9.48;6.82;;;;;;;22.69;100.00;95477.53;5014788;28;20079;-71
2023/07/19 03:35:46;;;;;;;9.48;6.32;;;;;;;22.73;100.00;95484.06;5014937;28;20116;-71
2023/07/19 03:38:11;;;;;;;11.52;7.35;;;;;;;22.75;100.00;95472.06;5014661;28;20062;-70
2023/07/19 03:40:36;;;;;;;11.13;5.85;;;;;;;22.81;100.00;95469.53;5013541;28;20014;-71
2023/07/19 03:43:02;;;;;;;10.30;6.25;;;;;;;22.81;100.00;95461.50;5012098;28;20112;-71
2023/07/19 03:45:28;;;;;;;8.77;6.45;;;;;;;22.77;100.00;95452.22;5016285;28;20030;-70
2023/07/19 03:47:53;;;;;;;9.00;6.68;;;;;;;22.76;100.00;95438.00;5017157;28;20034;-71
2023/07/19 03:50:19;;;;;;;8.50;6.38;;;;;;;22.76;100.00;95424.59;5012774;28;20379;-71
2023/07/19 03:52:44;;;;;;;7.95;6.63;;;;;;;22.69;100.00;95403.22;5011338;28;20042;-70
2023/07/19 03:55:10;;;;;;;9.57;7.03;;;;;;;22.62;100.00;95391.75;5005939;28;20041;-70
2023/07/19 03:57:35;;;;;;;7.70;6.32;;;;;;;22.60;100.00;95391.97;5015121;28;20091;-71
2023/07/19 04:00:01;;;;;;;14.38;6.68;;;;;;;22.49;100.00;95383.84;5011035;28;20463;-71
2023/07/19 04:02:26;;;;;;;7.25;6.50;;;;;;;;;;5014074;28;20055;-70
2023/07/19 04:04:52;;;;;;;10.60;6.43;;;;;;;22.38;100.00;95315.66;5013938;28;20026;-70
2023/07/19 04:07:17;;;;;;;10.25;6.65;;;;;;;22.37;100.00;95295.25;5015075;28;20277;-71
2023/07/19 04:09:44;;;;;;;7.00;6.30;;;;;;;22.40;100.00;95284.09;5046414;28;20608;-71
2023/07/19 04:12:09;;;;;;;10.55;6.82;;;;;;;22.39;100.00;95269.03;5012014;28;20037;-71
2023/07/19 04:14:35;;;;;;;12.45;7.13;;;;;;;22.38;100.00;95251.31;5013422;28;20021;-71
2023/07/19 04:17:00;;;;;;;9.65;6.88;;;;;;;22.27;100.00;95234.97;5012566;28;20037;-71
2023/07/19 04:19:25;;;;;;;9.13;7.22;;;;;;;22.26;100.00;95211.88;5013268;28;20025;-71
2023/07/19 04:21:51;;;;;;;10.27;6.18;;;;;;;22.30;100.00;95190.78;5013241;28;20064;-69
2023/07/19 04:24:16;;;;;;;8.20;6.97;;;;;;;22.35;100.00;95133.81;5014265;28;20030;-70
2023/07/19 04:26:41;;;;;;;11.20;8.48;;;;;;;22.36;100.00;95132.75;5014831;28;20167;-69
2023/07/19 04:29:07;;;;;;;11.48;7.15;;;;;;;22.33;100.00;95126.81;5010412;28;20037;-69
2023/07/19 04:31:32;;;;;;;10.50;6.53;;;;;;;22.37;100.00;95110.25;5011708;28;20030;-70
2023/07/19 04:33:58;;;;;;;9.43;6.95;;;;;;;22.37;100.00;95111.09;5012753;28;20025;-69
2023/07/19 04:36:23;;;;;;;10.65;6.55;;;;;;;22.42;100.00;95103.16;5013728;28;20117;-69
2023/07/19 04:38:48;;;;;;;12.88;6.82;;;;;;;22.50;100.00;95114.63;5015656;28;20037;-70
2023/07/19 04:41:14;;;;;;;9.85;6.90;;;;;;;22.55;100.00;95134.34;5017398;28;20029;-69
2023/07/19 04:43:39;;;;;;;13.43;7.43;;;;;;;22.57;100.00;95126.06;5015607;28;20025;-69
2023/07/19 04:46:05;;;;;;;10.30;6.97;;;;;;;22.56;100.00;95133.28;5021575;28;20116;-69
2023/07/19 04:48:30;;;;;;;10.27;6.47;;;;;;;22.56;100.00;95119.06;5015127;28;20073;-69
2023/07/19 04:50:57;;;;;;;10.05;7.20;;;;;;;22.57;100.00;95107.28;5016721;28;20029;-69
2023/07/19 04:53:24;;;;;;;9.88;6.70;;;;;;;22.60;100.00;95094.22;5014076;28;20040;-70
2023/07/19 04:55:51;;;;;;;11.02;7.43;;;;;;;22.64;100.00;95108.00;5016113;28;20025;-69
2023/07/19 04:58:16;;;;;;;17.08;7.18;;;;;;;22.68;100.00;95111.03;5017014;28;20120;-69
2023/07/19 05:00:42;;;;;;;17.92;7.47;;;;;;;22.67;100.00;95118.25;5014220;28;20100;-70
2023/07/19 05:03:07;;;;;;;14.65;6.57;;;;;;;22.62;100.00;95115.47;5012924;28;20684;-69
2023/07/19 05:05:33;;;;;;;10.65;7.40;;;;;;;22.55;100.00;95112.88;5015047;28;20037;-70
2023/07/19 05:07:59;;;;;;;10.60;6.85;;;;;;;22.52;100.00;95096.41;5015467;28;20040;-69
2023/07/19 05:10:24;;;;;;;9.82;6.97;;;;;;;22.55;100.00;95090.63;5021875;28;20041;-69
2023/07/19 05:12:49;;;;;;;8.98;6.80;;;;;;;22.57;100.00;95105.41;5015993;28;20029;-69
2023/07/19 05:15:15;;;;;;;12.00;6.40;;;;;;;22.58;100.00;95117.78;5014976;28;20735;-69
2023/07/19 05:17:40;;;;;;;10.27;7.15;;;;;;;22.48;100.00;95128.28;5016196;28;20034;-69
2023/07/19 05:20:07;;;;;;;8.65;7.13;;;;;;;22.40;100.00;95118.66;5015903;28;20398;-69
2023/07/19 05:22:33;;;;;;;7.47;6.40;;;;;;;22.29;100.00;95082.75;5020972;28;20022;-69
2023/07/19 05:24:58;;;;;;;8.25;7.03;;;;;;;22.22;100.00;95055.22;5015550;28;20041;-69
2023/07/19 05:27:24;;;;;;;9.60;6.65;;;;;;;22.25;100.00;95035.16;5016135;28;20049;-69
2023/07/19 05:29:50;;;;;;;7.45;6.50;;;;;;;22.29;100.00;94996.94;5015879;28;20425;-69
2023/07/19 05:32:16;;;;;;;10.10;6.57;;;;;;;22.36;100.00;94961.16;5016661;28;20046;-70
2023/07/19 05:34:41;;;;;;;7.40;6.70;;;;;;;22.41;100.00;94947.84;5015152;28;20025;-69
2023/07/19 05:37:07;;;;;;;9.98;6.38;;;;;;;22.48;100.00;94921.78;5016103;28;20538;-69
2023/07/19 05:39:34;;;;;;;7.85;6.35;;;;;;;22.53;100.00;94911.16;5014863;28;20096;-69
2023/07/19 05:41:59;;;;;;;9.00;6.53;;;;;;;22.65;100.00;94896.88;5015541;28;20014;-69
2023/07/19 05:44:25;;;;;;;11.45;6.60;;;;;;;22.83;100.00;94894.03;5018458;28;20032;-70
2023/07/19 05:46:52;;;;;;;7.93;6.35;;;;;;;22.96;100.00;94895.59;5020668;28;20537;-69
2023/07/19 05:49:17;;;;;;;7.97;6.47;;;;;;;23.07;100.00;94918.09;5018209;28;20018;-69
2023/07/19 05:51:43;;;;;;;9.88;6.38;;;;;;;23.16;100.00;94929.25;5013389;28;20501;-70
2023/07/19 05:54:09;;;;;;;7.25;6.18;;;;;;;23.29;100.00;94938.91;5016541;28;20517;-70
2023/07/19 05:56:35;;;;;;;7.38;5.88;;;;;;;23.38;100.00;94934.81;5015245;28;20018;-70
2023/07/19 05:59:00;;;;;;;7.50;6.25;;;;;;;23.38;100.00;94921.38;5016299;28;20485;-70
2023/07/19 06:01:26;;;;;;;9.98;6.75;;;;;;;23.43;100.00;94918.78;5015812;28;20076;-70
2023/07/19 06:03:51;;;;;;;9.45;7.03;;;;;;;23.52;100.00;94929.09;5042364;28;20036;-70
2023/07/19 06:06:16;;;;;;;9.88;6.43;;;;;;;23.58;100.00;94936.22;5014505;28;20397;-69
2023/07/19 06:08:42;;;;;;;9.45;6.07;;;;;;;23.65;100.00;94952.16;5014046;28;20048;-69
2023/07/19 06:11:07;;;;;;;7.07;6.05;;;;;;;23.75;100.00;94963.09;5011226;28;20033;-70
2023/07/19 06:13:33;;;;;;;7.55;6.25;;;;;;;23.93;100.00;94974.66;5013823;28;20106;-69
2023/07/19 06:15:58;;;;;;;10.77;6.03;;;;;;;24.08;100.00;94992.94;5013483;28;20113;-70
2023/07/19 06:18:24;;;;;;;7.32;5.82;;;;;;;24.22;100.00;95061.47;5016019;28;20042;-70
2023/07/19 06:20:49;;;;;;;8.50;5.78;;;;;;;24.37;100.00;95136.22;5009771;28;20018;-72
2023/07/19 06:23:15;;;;;;;5.80;4.85;;;;;;;24.49;100.00;95148.78;5013434;28;20033;-71
2023/07/19 06:25:40;;;;;;;6.40;5.63;;;;;;;24.55;100.00;95127.09;5011638;28;20153;-71
2023/07/19 06:28:06;;;;;;;6.47;5.88;;;;;;;24.66;100.00;95114.63;5016948;28;20037;-71
2023/07/19 06:30:32;;;;;;;9.45;5.30;;;;;;;24.76;100.00;95151.66;5016846;28;20092;-71
2023/07/19 06:32:57;;;;;;;10.07;5.63;;;;;;;24.86;100.00;95175.25;5018807;28;20025;-70
2023/07/19 06:35:22;;;;;;;7.82;5.55;;;;;;;24.97;100.00;95192.38;5019173;28;20022;-70
2023/07/19 06:37:48;;;;;;;10.15;5.43;;;;;;;25.06;100.00;95209.72;5018885;28;20025;-74
2023/07/19 06:40:15;;;;;;;11.93;6.38;;;;;;;25.13;100.00;95226.56;5026292;28;20062;-71
2023/07/19 06:42:42;;;;;;;12.50;6.53;;;;;;;25.22;100.00;95235.03;5050665;28;20107;-71
2023/07/19 06:45:09;;;;;;;8.82;5.78;;;;;;;25.32;100.00;95255.94;5019645;28;20030;-71
2023/07/19 06:47:34;;;;;;;7.00;5.68;;;;;;;25.41;100.00;95267.09;5024150;28;20065;-69
2023/07/19 06:50:00;;;;;;;6.68;4.97;;;;;;;25.54;100.00;95293.72;5019633;28;20025;-70
2023/07/19 06:52:25;;;;;;;9.48;5.63;;;;;;;25.67;100.00;95313.31;5018581;28;20018;-71
2023/07/19 06:54:51;;;;;;;7.78;5.50;;;;;;;25.88;100.00;95326.03;5018726;28;20025;-71
2023/07/19 06:57:16;;;;;;;8.75;5.57;;;;;;;26.10;100.00;95351.38;5052855;28;20053;-71
2023/07/19 06:59:42;;;;;;;8.18;5.82;;;;;;;26.27;100.00;95368.38;5026950;28;20029;-72
2023/07/19 07:02:10;;;;;;;7.70;5.72;;;;;;;26.38;100.00;95390.09;5022617;28;20053;-72
2023/07/19 07:04:35;;;;;;;7.30;5.88;;;;;;;26.65;100.00;95395.56;5017682;28;20064;-72
2023/07/19 07:07:00;;;;;;;8.63;5.68;;;;;;;26.84;100.00;95423.03;5019291;28;20046;-72
2023/07/19 07:09:27;;;;;;;6.00;5.40;;;;;;;26.89;100.00;95457.44;5017398;28;20442;-71
2023/07/19 07:11:53;;;;;;;9.75;5.28;;;;;;;26.94;100.00;95487.19;5016749;28;20094;-71
2023/07/19 07:14:18;;;;;;;10.90;5.40;;;;;;;27.05;100.00;95500.84;5018272;28;20025;-71
2023/07/19 07:16:44;;;;;;;9.32;5.35;;;;;;;27.37;100.00;95517.16;5016718;28;20025;-69
2023/07/19 07:19:10;;;;;;;7.13;4.57;;;;;;;27.45;100.00;95537.53;5018261;28;20037;-69
2023/07/19 07:21:36;;;;;;;9.00;5.00;;;;;;;27.60;100.00;95551.22;5017812;28;20509;-69
2023/07/19 07:24:01;;;;;;;10.05;5.15;;;;;;;27.69;100.00;95557.00;5016317;28;20026;-69
2023/07/19 07:26:27;;;;;;;5.10;4.60;;;;;;;27.95;100.00;95569.97;5017813;28;20048;-69
2023/07/19 07:28:52;;;;;;;7.47;5.13;;;;;;;28.21;100.00;95576.47;5010476;28;20022;-70
2023/07/19 07:31:18;;;;;;;8.23;4.90;;;;;;;28.34;100.00;95598.75;5018799;28;20031;-70
2023/07/19 07:33:43;;;;;;;6.53;5.40;;;;;;;28.46;100.00;95596.69;5015712;28;20108;-70
2023/07/19 07:36:08;;;;;;;8.32;4.70;;;;;;;28.63;100.00;95617.38;5011901;28;20025;-70
2023/07/19 07:38:34;;;;;;;5.55;4.00;;;;;;;28.78;100.00;95647.28;5016278;28;20026;-70
2023/07/19 07:41:01;;;;;;;4.90;4.40;;;;;;;29.13;100.00;95667.63;5010431;28;20014;-70
2023/07/19 07:43:26;;;;;;;5.93;4.47;;;;;;;29.09;100.00;95690.06;5017588;28;20052;-70
2023/07/19 07:45:55;;;;;;;10.32;4.82;;;;;;;29.19;100.00;95686.63;5014379;28;20395;-70
2023/07/19 07:48:21;;;;;;;5.18;4.50;;;;;;;29.31;100.00;95695.38;5018359;28;20017;-70
2023/07/19 07:50:49;;;;;;;6.15;4.50;;;;;;;29.25;100.00;95691.00;5016791;28;20022;-70
2023/07/19 07:53:15;;;;;;;10.48;4.93;;;;;;;29.34;100.00;95685.91;5017327;28;20033;-70
2023/07/19 07:55:41;;;;;;;8.45;5.35;;;;;;;29.59;100.00;95705.03;5015965;28;20022;-71
2023/07/19 07:58:07;;;;;;;7.80;4.63;;;;;;;29.42;100.00;95699.81;5018256;28;20057;-70
2023/07/19 08:00:32;;;;;;;9.98;5.13;;;;;;;29.44;100.00;95708.50;5017187;28;20110;-70
2023/07/19 08:02:57;;;;;;;7.72;4.88;;;;;;;29.56;100.00;95711.00;5012562;28;20124;-70
2023/07/19 08:05:23;;;;;;;8.93;5.00;;;;;;;29.56;100.00;95718.34;5014787;28;20451;-70
2023/07/19 08:07:48;;;;;;;9.30;5.25;;;;;;;29.66;100.00;95720.28;5016095;28;20029;-70
2023/07/19 08:10:14;;;;;;;5.68;5.10;;;;;;;29.56;100.00;95738.13;5021002;28;20482;-70
2023/07/19 08:12:39;;;;;;;11.75;4.78;;;;;;;29.15;100.00;95745.94;5020059;28;20493;-70
2023/07/19 08:15:05;;;;;;;6.95;4.72;;;;;;;29.30;100.00;95746.06;5017150;28;20033;-70
2023/07/19 08:17:31;;;;;;;8.75;5.35;;;;;;;29.61;100.00;95753.59;5015943;28;20116;-70
2023/07/19 08:19:56;;;;;;;6.35;4.90;;;;;;;29.96;100.00;95748.63;5019643;28;20040;-70
2023/07/19 08:22:27;;;;;;;7.25;4.78;;;;;;;29.96;100.00;95752.19;5015411;28;20060;-70
2023/07/19 08:24:53;;;;;;;7.13;5.85;;;;;;;30.02;100.00;95764.72;5016502;28;20021;-70
2023/07/19 08:27:19;;;;;;;7.60;5.32;;;;;;;29.86;100.00;95780.06;5017021;28;20081;-69
2023/07/19 08:29:44;;;;;;;6.72;4.75;;;;;;;30.01;100.00;95786.63;5021137;28;20037;-69
2023/07/19 08:32:09;;;;;;;6.47;4.95;;;;;;;29.97;100.00;95783.66;5024407;28;20054;-70
2023/07/19 08:34:35;;;;;;;7.60;5.70;;;;;;;29.95;100.00;95795.84;5020146;28;20040;-70
2023/07/19 08:37:00;;;;;;;6.05;5.00;;;;;;;29.79;100.00;95792.22;5016827;28;20116;-70
2023/07/19 08:39:27;;;;;;;7.15;5.10;;;;;;;29.73;100.00;95788.66;5016662;28;20087;-71
2023/07/19 08:41:53;;;;;;;8.07;6.10;;;;;;;29.50;100.00;95793.41;5016648;28;20022;-71
2023/07/19 08:44:21;;;;;;;10.93;5.53;;;;;;;29.37;100.00;95801.94;5017738;28;20104;-71
2023/07/19 08:46:49;;;;;;;6.35;5.30;;;;;;;29.37;100.00;95794.63;5016672;28;20045;-71
2023/07/19 08:49:17;;;;;;;6.35;5.07;;;;;;;29.66;100.00;95797.03;5018347;28;20033;-71
2023/07/19 08:51:44;;;;;;;10.68;4.82;;;;;;;29.66;100.00;95794.31;5013968;28;20026;-71
2023/07/19 08:54:10;;;;;;;6.55;4.78;;;;;;;29.63;100.00;95799.47;5020259;28;20105;-70
2023/07/19 08:56:36;;;;;;;7.00;5.00;;;;;;;29.72;100.00;95801.41;5019421;28;20056;-70
2023/07/19 08:59:03;;;;;;;7.95;4.57;;;;;;;29.65;100.00;95803.53;5024816;28;20433;-71
2023/07/19 09:01:28;;;;;;;6.95;5.22;;;;;;;29.62;100.00;95793.22;5023245;28;20113;-71
2023/07/19 09:03:54;;;;;;;13.35;5.55;;;;;;;29.61;100.00;95805.13;5016489;28;20061;-71
2023/07/19 09:06:28;;;;;;;8.55;5.20;;;;;;;29.70;100.00;95800.03;5017443;28;20534;-71
2023/07/19 09:08:55;;;;;;;7.43;5.22;;;;;;;30.06;100.00;95802.97;5019015;28;20137;-71
2023/07/19 09:11:24;;;;;;;5.85;4.88;;;;;;;29.90;100.00;95807.47;5019901;28;20061;-71
2023/07/19 09:13:58;;;;;;;5.30;4.65;;;;;;;30.00;100.00;95809.44;5018361;28;20069;-71
2023/07/19 09:16:27;;;;;;;10.35;5.00;;;;;;;30.57;100.00;95812.41;5017988;28;20057;-72
2023/07/19 09:18:54;;;;;;;6.68;5.30;;;;;;;30.53;100.00;95816.75;5020737;28;20033;-71
2023/07/19 09:21:52;;;;;;;7.55;4.85;;;;;;;30.68;100.00;95827.66;5027405;28;20036;-71
2023/07/19 09:24:17;;;;;;;5.72;4.93;;;;;;;30.78;100.00;95826.09;5017066;28;20851;-71
2023/07/19 09:26:56;;;;;;;7.07;4.97;;;;;;;30.85;100.00;95827.47;5017277;28;20458;-71
2023/07/19 09:29:22;;;;;;;6.97;4.75;;;;;;;31.07;100.00;95916.13;5009828;28;20037;-72
2023/07/19 09:32:02;;;;;;;12.48;5.25;;;;;;;31.09;100.00;95908.50;5018100;28;20026;-71
2023/07/19 09:34:38;;;;;;;8.30;4.97;;;;;;;31.03;100.00;95915.00;5017792;28;20035;-71
2023/07/19 09:37:04;;;;;;;5.65;5.05;;;;;;;30.73;100.00;95917.38;5017306;28;20022;-71
2023/07/19 09:39:34;;;;;;;6.65;5.88;;;;;;;30.84;100.00;95912.78;5018842;28;20124;-71
2023/07/19 09:42:03;;;;;;;21.38;13.93;;;;;;;30.90;100.00;95910.06;5019039;28;20045;-71
2023/07/19 09:44:33;;;;;;;7.57;5.22;;;;;;;31.18;100.00;95899.81;5018570;28;20026;-71
2023/07/19 09:47:00;;;;;;;11.05;5.20;;;;;;;31.37;100.00;95898.25;5022220;28;20153;-71
2023/07/19 09:49:26;;;;;;;6.03;5.30;;;;;;;31.24;100.00;95893.31;5025465;28;20096;-71
2023/07/19 09:51:54;;;;;;;7.13;5.10;;;;;;;31.36;100.00;95899.31;5014366;28;20025;-71
2023/07/19 09:54:23;;;;;;;9.00;5.07;;;;;;;31.49;100.00;95897.16;5021674;28;20030;-71
2023/07/19 09:56:48;;;;;;;7.63;5.13;;;;;;;31.58;100.00;95887.38;5013348;28;20034;-72
2023/07/19 09:59:18;;;;;;;8.35;5.07;;;;;;;31.44;100.00;95876.22;5020874;28;20038;-71
2023/07/19 10:01:44;;;;;;;6.63;4.93;;;;;;;31.75;100.00;95875.41;5020546;28;20032;-71
2023/07/19 10:04:30;;;;;;;6.32;4.95;;;;;;;31.74;100.00;95877.28;5012239;28;20161;-72
2023/07/19 10:07:07;;;;;;;11.13;5.80;;;;;;;31.60;100.00;95882.47;5022572;28;20613;-71
2023/07/19 10:09:37;;;;;;;6.30;4.70;;;;;;;31.49;100.00;95880.81;5025193;28;20052;-72
2023/07/19 10:12:26;;;;;;;8.02;5.18;;;;;;;31.90;100.00;95877.31;5019479;28;20029;-71
2023/07/19 10:15:00;;;;;;;7.43;4.60;;;;;;;31.73;100.00;95873.78;5014993;28;20097;-72
2023/07/19 10:17:26;;;;;;;8.95;4.68;;;;;;;31.76;100.00;95868.88;5014232;28;20075;-72
2023/07/19 10:20:04;;;;;;;6.43;4.95;;;;;;;32.14;100.00;95861.19;5028619;28;20034;-71
2023/07/19 10:22:57;;;;;;;9.13;4.90;;;;;;;32.12;100.00;95871.53;5011233;28;20749;-72
2023/07/19 10:25:34;;;;;;;6.35;4.70;;;;;;;32.34;100.00;95865.81;5012542;28;20037;-72
2023/07/19 10:28:09;;;;;;;6.70;5.20;;;;;;;32.34;100.00;95870.41;5016517;28;20026;-72
2023/07/19 10:30:45;;;;;;;5.05;4.40;;;;;;;32.09;100.00;95869.38;5026612;28;20030;-72
2023/07/19 10:33:12;;;;;;;10.32;5.47;;;;;;;32.16;100.00;95875.34;5026686;28;20030;-71
2023/07/19 10:35:38;;;;;;;7.95;4.70;;;;;;;32.47;100.00;95872.56;5026766;28;20026;-73
2023/07/19 10:38:04;;;;;;;6.53;4.57;;;;;;;32.68;100.00;95872.47;5025840;28;20033;-72
2023/07/19 10:40:33;;;;;;;8.40;4.43;;;;;;;32.51;100.00;95870.91;5017276;28;20049;-72
2023/07/19 10:42:58;;;;;;;6.45;4.35;;;;;;;32.42;100.00;95867.13;5018024;28;20022;-72
2023/07/19 10:45:25;;;;;;;7.05;4.07;;;;;;;32.75;100.00;95872.19;5024420;28;20521;-72
2023/07/19 10:47:51;;;;;;;11.32;4.55;;;;;;;32.94;100.00;95859.56;5011743;28;20034;-72
2023/07/19 10:50:17;;;;;;;8.90;4.32;;;;;;;33.23;100.00;95861.56;5012271;28;20121;-72
2023/07/19 10:52:46;;;;;;;5.85;4.30;;;;;;;33.37;100.00;95852.72;5009512;28;20572;-74
2023/07/19 10:55:13;;;;;;;8.50;4.40;;;;;;;33.51;100.00;95855.66;5018074;28;20091;-73
2023/07/19 10:57:38;;;;;;;5.15;4.07;;;;;;;33.61;100.00;95852.03;5019089;28;20032;-73
2023/07/19 11:00:12;;;;;;;6.10;4.10;;;;;;;33.67;100.00;95857.13;5025262;28;20022;-73
2023/07/19 11:02:41;;;;;;;8.32;4.13;;;;;;;33.81;100.00;95845.56;5016409;28;20902;-72
2023/07/19 11:05:07;;;;;;;10.20;4.43;;;;;;;33.64;100.00;95848.72;5019825;28;20418;-73
2023/07/19 11:07:34;;;;;;;7.25;4.68;;;;;;;33.94;100.00;95841.31;5012395;28;20038;-75
2023/07/19 11:10:03;;;;;;;6.70;4.30;;;;;;;34.04;100.00;95846.69;5024275;28;20112;-74
2023/07/19 11:12:33;;;;;;;5.22;4.13;;;;;;;34.16;100.00;95851.78;5028086;28;20017;-73
2023/07/19 11:15:00;;;;;;;3.95;3.58;;;;;;;34.01;100.00;95850.00;5021761;28;20026;-73
2023/07/19 11:17:27;;;;;;;4.53;4.07;;;;;;;34.07;100.00;95848.88;5022304;28;20025;-74
2023/07/19 11:19:53;;;;;;;6.38;4.30;;;;;;;34.15;100.00;95841.94;5016687;28;20026;-74
2023/07/19 11:22:23;;;;;;;4.80;4.03;;;;;;;33.94;100.00;95831.22;5011778;28;20029;-74